createdAt,value
2018-12-18T00:02:13.433Z,92.60
2018-12-18T00:04:44.607Z,92.70
2018-12-18T00:07:15.780Z,92.90
2018-12-18T00:09:44.946Z,92.80
2018-12-18T00:12:14.246Z,92.70
2018-12-18T00:14:43.418Z,92.60
2018-12-18T00:17:12.588Z,92.80
2018-12-18T00:19:41.740Z,93.00
2018-12-18T00:22:10.921Z,93.20
2018-12-18T00:24:40.088Z,93.80
2018-12-18T00:27:09.248Z,93.80
2018-12-18T00:29:38.433Z,93.90
2018-12-18T00:32:07.588Z,93.80
2018-12-18T00:34:36.741Z,93.80
2018-12-18T00:37:06.310Z,93.90
2018-12-18T00:39:35.925Z,93.50
2018-12-18T00:42:05.109Z,93.40
2018-12-18T00:44:34.358Z,93.10
2018-12-18T00:47:03.557Z,93.30
2018-12-18T00:49:32.753Z,93.10
2018-12-18T00:52:01.938Z,92.90
2018-12-18T00:54:31.081Z,93.00
2018-12-18T00:57:00.245Z,92.80
2018-12-18T00:59:29.415Z,92.80
2018-12-18T01:02:01.029Z,93.20
2018-12-18T01:04:30.459Z,93.30
2018-12-18T01:06:59.620Z,93.30
2018-12-18T01:09:28.809Z,93.60
2018-12-18T01:11:58.000Z,93.80
2018-12-18T01:14:27.170Z,93.80
2018-12-18T01:16:56.333Z,93.70
2018-12-18T01:19:25.482Z,93.80
2018-12-18T01:21:55.638Z,94.10
2018-12-18T01:24:24.796Z,94.30
2018-12-18T01:26:53.976Z,94.20
2018-12-18T01:29:29.479Z,94.30
2018-12-18T01:31:58.669Z,94.20
2018-12-18T01:34:27.820Z,94.30
2018-12-18T01:36:56.996Z,94.10
2018-12-18T01:39:26.157Z,93.70
2018-12-18T01:41:55.314Z,93.70
2018-12-18T01:44:24.481Z,93.80
2018-12-18T01:46:53.642Z,93.40
2018-12-18T01:49:22.868Z,93.20
2018-12-18T01:51:52.015Z,93.20
2018-12-18T01:54:22.275Z,93.20
2018-12-18T01:56:51.442Z,93.20
2018-12-18T01:59:20.767Z,93.20
2018-12-18T02:01:49.931Z,93.20
2018-12-18T02:04:19.086Z,93.10
2018-12-18T02:06:48.237Z,93.60
2018-12-18T02:09:18.184Z,93.80
2018-12-18T02:11:47.458Z,93.70
2018-12-18T02:14:16.622Z,93.90
2018-12-18T02:16:45.757Z,94.20
2018-12-18T02:19:14.895Z,94.40
2018-12-18T02:21:44.069Z,94.50
2018-12-18T02:24:13.238Z,94.50
2018-12-18T02:26:42.532Z,94.70
2018-12-18T02:29:11.690Z,94.10
2018-12-18T02:31:40.842Z,93.90
2018-12-18T02:34:13.724Z,94.00
2018-12-18T02:36:41.169Z,94.00
2018-12-18T02:39:10.330Z,94.10
2018-12-18T02:41:39.489Z,94.10
2018-12-18T02:44:08.676Z,94.10
2018-12-18T02:46:37.848Z,94.00
2018-12-18T02:49:07.019Z,93.90
2018-12-18T02:51:36.173Z,93.90
2018-12-18T02:54:05.324Z,94.00
2018-12-18T02:56:34.491Z,94.00
2018-12-18T02:59:03.793Z,94.00
2018-12-18T03:01:32.960Z,94.20
2018-12-18T03:04:02.135Z,94.10
2018-12-18T03:06:31.302Z,94.10
2018-12-18T03:09:00.462Z,94.40
2018-12-18T03:11:29.597Z,94.50
2018-12-18T03:13:58.869Z,94.70
2018-12-18T03:16:28.088Z,95.20
2018-12-18T03:18:57.299Z,95.00
2018-12-18T03:21:26.488Z,94.80
2018-12-18T03:23:55.652Z,94.70
2018-12-18T03:26:24.817Z,94.50
2018-12-18T03:28:54.092Z,94.40
2018-12-18T03:31:23.880Z,94.20
2018-12-18T03:33:53.153Z,94.00
2018-12-18T03:36:22.309Z,93.70
2018-12-18T03:38:51.482Z,93.60
2018-12-18T03:41:20.888Z,93.50
2018-12-18T03:43:50.067Z,93.40
2018-12-18T03:46:19.242Z,93.10
2018-12-18T03:48:48.389Z,93.00
2018-12-18T03:51:17.547Z,93.00
2018-12-18T03:53:46.719Z,92.90
2018-12-18T03:56:15.885Z,92.80
2018-12-18T03:58:45.080Z,92.90
2018-12-18T04:01:14.246Z,92.70
2018-12-18T04:03:43.429Z,92.80
2018-12-18T04:06:12.601Z,92.80
2018-12-18T04:08:41.755Z,92.90
2018-12-18T04:11:11.045Z,92.80
2018-12-18T04:13:40.240Z,92.80
2018-12-18T04:16:09.401Z,92.80
2018-12-18T04:18:38.573Z,92.80
2018-12-18T04:21:07.923Z,92.80
2018-12-18T04:23:37.080Z,93.10
2018-12-18T04:26:06.231Z,93.50
2018-12-18T04:28:35.384Z,93.50
2018-12-18T04:31:04.573Z,93.80
2018-12-18T04:33:33.733Z,93.90
2018-12-18T04:36:02.901Z,93.70
2018-12-18T04:38:32.074Z,93.60
2018-12-18T04:41:01.435Z,93.40
2018-12-18T04:43:30.603Z,93.20
2018-12-18T04:45:59.753Z,93.00
2018-12-18T04:48:28.900Z,92.90
2018-12-18T04:50:58.072Z,92.90
2018-12-18T04:53:27.234Z,92.90
2018-12-18T04:55:56.420Z,93.00
2018-12-18T04:58:25.722Z,93.20
2018-12-18T05:00:54.885Z,93.30
2018-12-18T05:03:24.073Z,93.50
2018-12-18T05:05:53.258Z,93.60
2018-12-18T05:08:22.412Z,93.90
2018-12-18T05:10:51.569Z,94.00
2018-12-18T05:13:20.738Z,94.10
2018-12-18T05:15:51.000Z,94.20
2018-12-18T05:18:20.192Z,93.90
2018-12-18T05:20:49.354Z,94.00
2018-12-18T05:23:18.537Z,94.10
2018-12-18T05:25:47.720Z,94.20
2018-12-18T05:28:16.878Z,94.40
2018-12-18T05:30:46.038Z,94.90
2018-12-18T05:33:15.205Z,94.60
2018-12-18T05:35:44.365Z,94.40
2018-12-18T05:38:13.532Z,94.60
2018-12-18T05:40:42.696Z,94.30
2018-12-18T05:43:11.900Z,94.20
2018-12-18T05:45:41.080Z,94.20
2018-12-18T05:48:10.252Z,93.70
2018-12-18T05:50:39.420Z,93.40
2018-12-18T05:53:08.710Z,93.20
2018-12-18T05:55:37.907Z,93.00
2018-12-18T05:58:07.063Z,93.10
2018-12-18T06:00:37.302Z,93.60
2018-12-18T06:03:06.465Z,94.40
2018-12-18T06:05:35.644Z,94.00
2018-12-18T06:08:04.830Z,94.10
2018-12-18T06:10:34.122Z,94.70
2018-12-18T06:13:03.305Z,94.90
2018-12-18T06:15:32.497Z,95.30
2018-12-18T06:18:01.682Z,95.30
2018-12-18T06:20:30.833Z,95.40
2018-12-18T06:22:59.994Z,95.30
2018-12-18T06:25:29.166Z,95.00
2018-12-18T06:27:58.372Z,94.80
2018-12-18T06:30:27.576Z,94.60
2018-12-18T06:32:56.767Z,94.20
2018-12-18T06:35:25.985Z,94.20
2018-12-18T06:37:55.195Z,93.70
2018-12-18T06:40:24.359Z,93.30
2018-12-18T06:42:53.525Z,93.10
2018-12-18T06:45:22.701Z,93.10
2018-12-18T06:47:51.854Z,93.30
2018-12-18T06:50:21.014Z,93.70
2018-12-18T06:52:50.178Z,93.90
2018-12-18T06:55:19.388Z,94.30
2018-12-18T06:57:48.544Z,94.70
2018-12-18T07:00:17.692Z,94.50
2018-12-18T07:02:46.863Z,94.20
2018-12-18T07:05:16.867Z,94.20
2018-12-18T07:07:46.403Z,93.90
2018-12-18T07:10:15.618Z,93.80
2018-12-18T07:12:44.785Z,93.80
2018-12-18T07:15:13.953Z,93.80
2018-12-18T07:17:43.125Z,93.70
2018-12-18T07:20:12.311Z,93.50
2018-12-18T07:22:41.497Z,93.20
2018-12-18T07:25:10.673Z,93.00
2018-12-18T07:27:39.824Z,93.00
2018-12-18T07:30:09.367Z,92.90
2018-12-18T07:32:38.578Z,92.90
2018-12-18T07:35:07.921Z,92.90
2018-12-18T07:37:37.156Z,92.80
2018-12-18T07:40:06.757Z,92.80
2018-12-18T07:42:36.042Z,93.00
2018-12-18T07:45:05.860Z,93.40
2018-12-18T07:47:35.317Z,93.70
2018-12-18T07:50:05.498Z,93.90
2018-12-18T07:52:34.679Z,94.00
2018-12-18T07:55:04.123Z,94.10
2018-12-18T07:57:33.292Z,94.10
2018-12-18T08:00:02.475Z,94.20
2018-12-18T08:02:33.238Z,94.30
2018-12-18T08:05:02.450Z,94.30
2018-12-18T08:07:31.617Z,94.30
2018-12-18T08:10:00.787Z,94.40
2018-12-18T08:12:29.952Z,94.70
2018-12-18T08:14:59.121Z,94.60
2018-12-18T08:17:28.293Z,94.50
2018-12-18T08:19:57.452Z,94.50
2018-12-18T08:22:26.614Z,94.50
2018-12-18T08:24:55.769Z,94.50
2018-12-18T08:27:25.062Z,94.60
2018-12-18T08:29:54.217Z,94.80
2018-12-18T08:32:24.128Z,94.70
2018-12-18T08:34:53.300Z,94.70
2018-12-18T08:37:22.477Z,94.60
2018-12-18T08:39:51.645Z,94.60
2018-12-18T08:42:21.071Z,94.60
2018-12-18T08:44:50.283Z,94.60
2018-12-18T08:47:19.512Z,94.70
2018-12-18T08:49:48.676Z,94.70
2018-12-18T08:52:17.923Z,94.70
2018-12-18T08:54:47.181Z,94.90
2018-12-18T08:57:16.357Z,95.40
2018-12-18T08:59:45.513Z,95.80
2018-12-18T09:02:14.712Z,95.50
2018-12-18T09:04:43.893Z,95.30
2018-12-18T09:07:13.079Z,95.20
2018-12-18T09:09:42.239Z,95.10
2018-12-18T09:12:16.386Z,95.10
2018-12-18T09:14:51.748Z,95.20
2018-12-18T09:17:26.626Z,95.30
2018-12-18T09:19:55.822Z,95.60
2018-12-18T09:22:24.997Z,95.60
2018-12-18T09:24:54.161Z,95.50
2018-12-18T09:27:23.319Z,95.50
2018-12-18T09:29:52.481Z,95.60
2018-12-18T09:32:21.666Z,95.70
2018-12-18T09:34:50.833Z,95.80
2018-12-18T09:37:20.780Z,95.80
2018-12-18T09:39:49.937Z,95.70
2018-12-18T09:42:24.357Z,95.70
2018-12-18T09:44:53.538Z,95.60
2018-12-18T09:47:22.696Z,95.70
2018-12-18T09:49:52.037Z,95.70
2018-12-18T09:52:21.221Z,95.80
2018-12-18T09:54:50.493Z,95.90
2018-12-18T09:57:25.047Z,96.00
2018-12-18T09:59:54.235Z,95.90
2018-12-18T10:02:23.603Z,95.90
2018-12-18T10:04:52.770Z,95.80
2018-12-18T10:07:21.931Z,95.80
2018-12-18T10:09:51.088Z,96.20
2018-12-18T10:12:24.449Z,96.80
2018-12-18T10:14:53.607Z,97.40
2018-12-18T10:17:22.781Z,97.10
2018-12-18T10:19:51.934Z,97.30
2018-12-18T10:22:21.127Z,97.10
2018-12-18T10:24:50.307Z,96.90
2018-12-18T10:27:19.686Z,96.60
2018-12-18T10:29:49.240Z,95.20
2018-12-18T10:32:18.458Z,95.30
2018-12-18T10:34:47.623Z,94.60
2018-12-18T10:37:16.801Z,94.40
2018-12-18T10:39:45.988Z,93.40
2018-12-18T10:42:15.140Z,92.30
2018-12-18T10:44:44.306Z,91.40
2018-12-18T10:47:13.477Z,91.60
2018-12-18T10:49:42.632Z,91.20
2018-12-18T10:52:12.066Z,90.70
2018-12-18T10:54:41.236Z,91.00
2018-12-18T10:57:10.416Z,89.10
2018-12-18T10:59:39.579Z,87.60
2018-12-18T11:02:09.025Z,87.20
2018-12-18T11:04:38.782Z,87.20
2018-12-18T11:07:07.970Z,84.40
2018-12-18T11:09:37.151Z,81.50
2018-12-18T11:12:06.361Z,78.80
2018-12-18T11:14:35.561Z,78.30
2018-12-18T11:17:04.744Z,75.80
2018-12-18T11:19:33.971Z,72.80
2018-12-18T11:22:03.168Z,72.80
2018-12-18T11:24:32.316Z,72.70
2018-12-18T11:27:01.513Z,69.80
2018-12-18T11:29:30.686Z,68.30
2018-12-18T11:32:02.742Z,67.50
2018-12-18T11:34:31.943Z,65.30
2018-12-18T11:37:01.110Z,63.80
2018-12-18T11:39:30.265Z,63.50
2018-12-18T11:41:59.433Z,64.00
2018-12-18T11:44:28.597Z,62.00
2018-12-18T11:46:58.040Z,60.30
2018-12-18T11:49:27.210Z,59.80
2018-12-18T11:51:56.811Z,59.70
2018-12-18T11:54:25.978Z,58.10
2018-12-18T11:56:55.177Z,59.00
2018-12-18T11:59:24.329Z,59.20
2018-12-18T12:01:53.501Z,59.20
2018-12-18T12:04:22.675Z,59.10
2018-12-18T12:06:51.839Z,58.10
2018-12-18T12:09:22.020Z,57.70
2018-12-18T12:11:51.194Z,57.00
2018-12-18T12:14:21.288Z,57.20
2018-12-18T12:16:50.452Z,56.10
2018-12-18T12:19:19.648Z,55.70
2018-12-18T12:21:48.820Z,55.40
2018-12-18T12:24:24.596Z,54.70
2018-12-18T12:26:57.965Z,54.40
2018-12-18T12:29:27.145Z,53.70
2018-12-18T12:31:56.360Z,55.20
2018-12-18T12:34:25.536Z,52.70
2018-12-18T12:36:55.072Z,51.60
2018-12-18T12:39:24.265Z,51.40
2018-12-18T12:41:53.549Z,50.70
2018-12-18T12:44:22.836Z,51.10
2018-12-18T12:46:51.993Z,50.10
2018-12-18T12:49:25.762Z,50.50
2018-12-18T12:51:55.503Z,49.60
2018-12-18T12:54:25.742Z,48.70
2018-12-18T12:56:55.329Z,48.50
2018-12-18T12:59:24.812Z,48.00
2018-12-18T13:01:54.079Z,48.50
2018-12-18T13:04:23.258Z,49.30
2018-12-18T13:06:52.504Z,49.70
2018-12-18T13:09:21.761Z,49.90
2018-12-18T13:11:51.018Z,49.90
2018-12-18T13:14:20.196Z,50.20
2018-12-18T13:16:49.408Z,50.80
2018-12-18T13:19:18.643Z,50.50
2018-12-18T13:21:47.874Z,50.70
2018-12-18T13:24:17.166Z,49.70
2018-12-18T13:26:46.359Z,50.00
2018-12-18T13:29:15.585Z,50.60
2018-12-18T13:31:45.564Z,49.30
2018-12-18T13:34:14.781Z,48.70
2018-12-18T13:36:44.043Z,48.50
2018-12-18T13:39:13.245Z,47.00
2018-12-18T13:41:42.502Z,46.20
2018-12-18T13:44:11.702Z,46.60
2018-12-18T13:46:41.535Z,45.90
2018-12-18T13:49:11.706Z,46.40
2018-12-18T13:51:40.993Z,45.20
2018-12-18T13:54:10.157Z,45.40
2018-12-18T13:56:39.429Z,44.70
2018-12-18T13:59:08.619Z,44.00
2018-12-18T14:01:37.879Z,44.10
2018-12-18T14:04:07.121Z,44.30
2018-12-18T14:06:36.334Z,43.90
2018-12-18T14:09:09.191Z,43.50
2018-12-18T14:11:38.444Z,43.90
2018-12-18T14:14:14.383Z,43.70
2018-12-18T14:16:43.606Z,43.10
2018-12-18T14:19:12.833Z,43.00
2018-12-18T14:21:42.107Z,43.70
2018-12-18T14:24:11.361Z,44.70
2018-12-18T14:26:40.609Z,45.10
2018-12-18T14:29:09.856Z,46.50
2018-12-18T14:31:39.071Z,47.20
2018-12-18T14:34:08.319Z,48.00
2018-12-18T14:36:38.302Z,49.20
2018-12-18T14:39:08.088Z,50.50
2018-12-18T14:41:39.362Z,51.90
2018-12-18T14:44:09.647Z,52.80
2018-12-18T14:46:38.873Z,53.50
2018-12-18T14:49:08.145Z,54.20
2018-12-18T14:51:37.448Z,55.10
2018-12-18T14:54:06.700Z,56.50
2018-12-18T14:56:36.357Z,57.30
2018-12-18T14:59:05.620Z,59.00
2018-12-18T15:01:34.884Z,59.40
2018-12-18T15:04:04.312Z,60.30
2018-12-18T15:06:33.570Z,60.50
2018-12-18T15:09:02.865Z,61.40
2018-12-18T15:11:34.185Z,62.10
2018-12-18T15:14:03.439Z,63.60
2018-12-18T15:16:32.770Z,64.60
2018-12-18T15:19:02.069Z,65.70
2018-12-18T15:21:31.462Z,66.80
2018-12-18T15:24:00.727Z,67.30
2018-12-18T15:26:29.992Z,67.40
2018-12-18T15:28:59.228Z,67.60
2018-12-18T15:31:28.495Z,69.60
2018-12-18T15:33:57.757Z,71.70
2018-12-18T15:36:26.987Z,72.80
2018-12-18T15:38:56.269Z,73.00
2018-12-18T15:41:25.521Z,75.30
2018-12-18T15:43:54.777Z,75.80
2018-12-18T15:46:24.075Z,77.30
2018-12-18T15:48:53.344Z,76.20
2018-12-18T15:51:22.629Z,76.90
2018-12-18T15:53:53.010Z,77.00
2018-12-18T15:56:22.287Z,80.10
2018-12-18T15:58:51.573Z,80.60
2018-12-18T16:01:20.877Z,80.90
2018-12-18T16:03:50.143Z,81.00
2018-12-18T16:06:19.406Z,83.00
2018-12-18T16:08:48.688Z,82.80
2018-12-18T16:11:17.984Z,82.70
2018-12-18T16:13:47.286Z,82.70
2018-12-18T16:16:16.991Z,82.90
2018-12-18T16:18:46.311Z,82.40
2018-12-18T16:21:15.602Z,82.80
2018-12-18T16:23:44.956Z,83.00
2018-12-18T16:26:14.268Z,82.00
2018-12-18T16:28:43.543Z,84.20
2018-12-18T16:31:12.810Z,83.20
2018-12-18T16:33:42.113Z,83.90
2018-12-18T16:36:11.378Z,85.40
2018-12-18T16:38:40.673Z,85.80
2018-12-18T16:41:10.949Z,86.00
2018-12-18T16:43:40.236Z,86.40
2018-12-18T16:46:09.634Z,86.20
2018-12-18T16:48:38.945Z,86.20
2018-12-18T16:51:08.287Z,85.30
2018-12-18T16:53:37.595Z,85.90
2018-12-18T16:56:07.041Z,86.20
2018-12-18T16:58:36.334Z,86.60
2018-12-18T17:01:05.600Z,86.90
2018-12-18T17:03:34.937Z,86.20
2018-12-18T17:06:04.236Z,86.40
2018-12-18T17:08:33.530Z,86.60
2018-12-18T17:11:02.829Z,86.70
2018-12-18T17:13:32.146Z,87.20
2018-12-18T17:16:01.417Z,86.90
2018-12-18T17:18:30.687Z,87.10
2018-12-18T17:20:59.988Z,87.10
2018-12-18T17:23:29.285Z,87.10
2018-12-18T17:25:58.603Z,86.80
2018-12-18T17:28:27.891Z,87.00
2018-12-18T17:30:57.167Z,86.20
2018-12-18T17:33:26.447Z,88.50
2018-12-18T17:35:55.979Z,88.40
2018-12-18T17:38:25.737Z,88.70
2018-12-18T17:40:55.305Z,87.60
2018-12-18T17:43:25.195Z,88.00
2018-12-18T17:45:54.489Z,87.50
2018-12-18T17:48:23.768Z,87.90
2018-12-18T17:50:53.112Z,87.90
2018-12-18T17:53:22.966Z,88.10
2018-12-18T17:55:52.230Z,87.40
2018-12-18T17:58:21.538Z,86.90
2018-12-18T18:00:50.811Z,87.90
2018-12-18T18:03:21.206Z,88.30
2018-12-18T18:05:52.661Z,88.20
2018-12-18T18:08:21.993Z,88.20
2018-12-18T18:10:51.258Z,88.30
2018-12-18T18:13:21.145Z,87.20
2018-12-18T18:15:50.423Z,87.40
2018-12-18T18:18:19.817Z,88.30
2018-12-18T18:20:49.100Z,88.60
2018-12-18T18:23:18.360Z,88.10
2018-12-18T18:25:48.959Z,88.80
2018-12-18T18:28:18.922Z,89.30
2018-12-18T18:30:48.253Z,89.90
2018-12-18T18:33:17.512Z,89.20
2018-12-18T18:35:46.785Z,88.70
2018-12-18T18:38:16.048Z,89.80
2018-12-18T18:40:45.291Z,89.70
2018-12-18T18:43:14.573Z,89.80
2018-12-18T18:45:43.869Z,89.00
2018-12-18T18:48:13.153Z,89.00
2018-12-18T18:50:43.369Z,88.70
2018-12-18T18:53:12.705Z,88.90
2018-12-18T18:55:41.980Z,88.40
2018-12-18T18:58:11.398Z,89.60
2018-12-18T19:00:40.706Z,90.00
2018-12-18T19:03:10.007Z,90.30
2018-12-18T19:05:39.926Z,90.20
2018-12-18T19:08:09.206Z,90.00
2018-12-18T19:10:38.821Z,90.00
2018-12-18T19:13:08.977Z,90.00
2018-12-18T19:15:38.937Z,90.00
2018-12-18T19:18:08.214Z,90.10
2018-12-18T19:20:37.533Z,90.10
2018-12-18T19:23:06.799Z,90.30
2018-12-18T19:25:36.124Z,90.70
2018-12-18T19:28:05.425Z,90.40
2018-12-18T19:30:35.158Z,90.50
2018-12-18T19:33:04.570Z,90.30
2018-12-18T19:35:34.724Z,90.00
2018-12-18T19:38:04.094Z,89.80
2018-12-18T19:40:33.502Z,90.10
2018-12-18T19:43:02.805Z,90.30
2018-12-18T19:45:32.087Z,90.30
2018-12-18T19:48:01.708Z,90.50
2018-12-18T19:50:32.172Z,90.50
2018-12-18T19:53:01.432Z,90.50
2018-12-18T19:55:30.800Z,90.40
2018-12-18T19:58:00.094Z,90.40
2018-12-18T20:00:29.389Z,90.40
2018-12-18T20:02:58.661Z,90.20
2018-12-18T20:05:28.299Z,90.70
2018-12-18T20:07:57.613Z,90.30
2018-12-18T20:10:26.914Z,90.10
2018-12-18T20:12:56.237Z,90.50
2018-12-18T20:15:25.552Z,90.40
2018-12-18T20:17:55.937Z,90.40
2018-12-18T20:20:25.226Z,90.30
2018-12-18T20:22:54.499Z,90.20
2018-12-18T20:25:23.772Z,90.10
2018-12-18T20:27:54.169Z,90.00
2018-12-18T20:30:23.473Z,90.10
2018-12-18T20:32:53.694Z,90.20
2018-12-18T20:35:22.977Z,90.00
2018-12-18T20:37:52.328Z,90.10
2018-12-18T20:40:21.616Z,90.00
2018-12-18T20:42:50.906Z,90.00
2018-12-18T20:45:20.219Z,89.80
2018-12-18T20:47:49.518Z,89.90
2018-12-18T20:50:18.794Z,91.00
2018-12-18T20:52:48.102Z,90.90
2018-12-18T20:55:17.389Z,90.60
2018-12-18T20:57:46.680Z,90.60
2018-12-18T21:00:15.986Z,90.40
2018-12-18T21:02:46.176Z,90.30
2018-12-18T21:05:21.851Z,90.20
2018-12-18T21:07:51.252Z,90.20
2018-12-18T21:10:23.389Z,90.10
2018-12-18T21:12:58.248Z,90.10
2018-12-18T21:15:28.226Z,90.50
2018-12-18T21:17:58.405Z,90.40
2018-12-18T21:20:29.413Z,90.60
2018-12-18T21:22:59.978Z,90.90
2018-12-18T21:25:29.358Z,91.00
2018-12-18T21:28:00.048Z,90.70
2018-12-18T21:30:29.499Z,90.70
2018-12-18T21:33:00.741Z,90.60
2018-12-18T21:35:31.023Z,90.60
2018-12-18T21:38:00.496Z,90.60
2018-12-18T21:40:30.963Z,90.30
2018-12-18T21:43:00.342Z,90.20
2018-12-18T21:45:29.737Z,90.10
2018-12-18T21:47:59.272Z,90.10
2018-12-18T21:50:29.394Z,90.10
2018-12-18T21:53:00.054Z,89.80
2018-12-18T21:55:29.484Z,89.70
2018-12-18T21:57:58.813Z,90.60
2018-12-18T22:00:28.118Z,90.70
2018-12-18T22:02:57.488Z,90.60
2018-12-18T22:05:28.219Z,91.00
2018-12-18T22:07:57.548Z,90.80
2018-12-18T22:10:26.847Z,90.70
2018-12-18T22:12:56.103Z,90.70
2018-12-18T22:15:25.413Z,90.80
2018-12-18T22:17:55.778Z,90.90
2018-12-18T22:20:25.117Z,90.90
2018-12-18T22:22:54.396Z,90.80
2018-12-18T22:25:23.581Z,90.70
2018-12-18T22:27:52.961Z,90.60
2018-12-18T22:30:26.234Z,90.70
2018-12-18T22:32:57.011Z,90.90
2018-12-18T22:35:27.022Z,90.80
2018-12-18T22:37:56.228Z,90.80
2018-12-18T22:40:26.046Z,90.70
2018-12-18T22:42:55.207Z,90.60
2018-12-18T22:45:24.360Z,90.90
2018-12-18T22:47:53.532Z,90.90
2018-12-18T22:50:22.731Z,90.70
2018-12-18T22:52:51.906Z,90.80
2018-12-18T22:55:21.088Z,90.70
2018-12-18T22:57:50.284Z,90.80
2018-12-18T23:00:24.651Z,91.10
2018-12-18T23:02:58.423Z,90.60
2018-12-18T23:05:27.896Z,90.90
2018-12-18T23:07:57.067Z,90.40
2018-12-18T23:10:27.618Z,90.30
2018-12-18T23:12:57.411Z,90.30
2018-12-18T23:15:26.574Z,90.30
2018-12-18T23:17:55.733Z,90.10
2018-12-18T23:20:24.899Z,90.20
2018-12-18T23:22:54.122Z,90.20
2018-12-18T23:25:23.464Z,90.00
2018-12-18T23:27:54.635Z,89.90
2018-12-18T23:30:23.930Z,90.10
2018-12-18T23:32:53.092Z,90.10
2018-12-18T23:35:23.980Z,90.10
2018-12-18T23:37:53.279Z,90.00
2018-12-18T23:40:22.478Z,90.10
2018-12-18T23:42:51.635Z,90.30
2018-12-18T23:45:20.942Z,90.10
2018-12-18T23:47:50.118Z,90.40
2018-12-18T23:50:19.352Z,90.30
2018-12-18T23:52:48.504Z,90.10
2018-12-18T23:55:17.684Z,90.30
2018-12-18T23:57:47.369Z,90.50
